Time;durP1;ratioP1;P1;durP2;ratioP2;P2;SDS_P1;SDS_P2;PMS_P1;PMS_P2;Temp;Humidity;BMP_temperature;BMP_pressure;BME280_temperature;BME280_humidity;BME280_pressure;Samples;Min_cycle;Max_cycle;Signal;HPM_P1;HPM_P2
2022/11/23 00:00:20;;;;;;;22.50;20.03;;;;;;;10.78;100.00;100358.47;2047622;28;20192;-61
2022/11/23 00:01:24;;;;;;;22.23;19.77;;;;;;;10.31;100.00;100274.31;2047614;29;20439;-61
2022/11/23 00:02:24;;;;;;;22.10;19.67;;;;;;;10.84;100.00;100353.94;2047557;28;20685;-61
2022/11/23 00:03:24;;;;;;;22.00;19.60;;;;;;;10.85;100.00;100349.94;2046932;29;20894;-62
2022/11/23 00:04:25;;;;;;;22.80;20.40;;;;;;;10.43;100.00;100284.66;2048207;28;20259;-61
2022/11/23 00:05:27;;;;;;;23.80;21.30;;;;;;;10.54;100.00;100323.13;2048553;28;20256;-61
2022/11/23 00:06:28;;;;;;;22.80;20.33;;;;;;;10.39;100.00;100275.66;2047701;28;20452;-61
2022/11/23 00:07:28;;;;;;;26.40;21.10;;;;;;;10.43;100.00;100283.88;2047748;28;20501;-61
2022/11/23 00:08:29;;;;;;;23.67;20.73;;;;;;;10.79;100.00;100345.38;2047961;28;20494;-62
2022/11/23 00:09:29;;;;;;;23.03;20.60;;;;;;;10.76;100.00;100340.72;2047844;28;20221;-61
2022/11/23 00:10:30;;;;;;;24.47;21.63;;;;;;;10.73;100.00;100338.81;2048347;29;20665;-62
2022/11/23 00:11:33;;;;;;;26.10;22.20;;;;;;;10.69;100.00;100333.38;2046892;28;20195;-62
2022/11/23 00:12:33;;;;;;;24.07;21.47;;;;;;;10.74;100.00;100332.84;2047826;28;20662;-62
2022/11/23 00:13:34;;;;;;;25.53;21.23;;;;;;;10.63;100.00;100318.50;2047973;28;20811;-62
2022/11/23 00:14:35;;;;;;;25.40;21.27;;;;;;;10.63;100.00;100335.13;2047704;29;20326;-61
2022/11/23 00:15:35;;;;;;;24.80;22.10;;;;;;;10.64;100.00;100325.59;2048099;28;20852;-62
2022/11/23 00:16:36;;;;;;;25.37;22.67;;;;;;;10.58;100.00;100332.13;2047722;29;20203;-61
2022/11/23 00:17:36;;;;;;;25.37;21.57;;;;;;;10.62;100.00;100332.81;2048091;28;20218;-62
2022/11/23 00:18:37;;;;;;;24.30;21.70;;;;;;;10.62;100.00;100332.81;2048106;28;20208;-61
2022/11/23 00:19:37;;;;;;;24.53;21.93;;;;;;;10.64;100.00;100339.47;2047283;29;20198;-61
2022/11/23 00:20:38;;;;;;;24.77;22.00;;;;;;;10.64;100.00;100333.91;2047392;28;20746;-61
2022/11/23 00:21:39;;;;;;;24.40;20.70;;;;;;;10.67;100.00;100341.34;2048133;28;20651;-61
2022/11/23 00:22:39;;;;;;;23.97;21.37;;;;;;;10.39;100.00;100281.22;2048059;28;20210;-62
2022/11/23 00:23:40;;;;;;;24.27;20.97;;;;;;;10.11;100.00;100256.31;2047588;28;20206;-61
2022/11/23 00:24:41;;;;;;;24.33;21.53;;;;;;;10.27;100.00;100303.31;2047736;28;20672;-61
2022/11/23 00:25:44;;;;;;;26.33;21.83;;;;;;;10.50;100.00;100339.09;2047635;28;20873;-62
2022/11/23 00:26:45;;;;;;;25.87;22.30;;;;;;;10.49;100.00;100334.75;2047723;28;20232;-61
2022/11/23 00:27:45;;;;;;;25.17;21.40;;;;;;;10.53;100.00;100327.91;2047622;28;20439;-61
2022/11/23 00:28:46;;;;;;;22.57;19.50;;;;;;;10.60;100.00;100326.94;2047919;28;20188;-61
2022/11/23 00:29:47;;;;;;;22.73;19.83;;;;;;;10.55;100.00;100325.47;2047383;28;20237;-62
2022/11/23 00:30:49;;;;;;;23.27;19.33;;;;;;;9.77;100.00;100212.53;2048033;28;20437;-60
2022/11/23 00:31:49;;;;;;;23.23;20.73;;;;;;;10.54;100.00;100328.66;2047549;28;20219;-61
2022/11/23 00:32:50;;;;;;;21.87;19.03;;;;;;;10.53;100.00;100327.13;2047930;28;21007;-61
2022/11/23 00:33:52;;;;;;;22.07;18.80;;;;;;;10.54;100.00;100312.03;2047051;29;20226;-61
2022/11/23 00:34:53;;;;;;;21.87;19.33;;;;;;;10.54;100.00;100312.03;2048482;28;20192;-62
2022/11/23 00:36:05;;;;;;;23.97;19.30;;;;;;;10.53;100.00;100314.06;2047833;28;20472;-61
2022/11/23 00:37:05;;;;;;;22.97;19.40;;;;;;;10.51;100.00;100310.94;2047990;28;20278;-60
2022/11/23 00:38:06;;;;;;;22.37;19.87;;;;;;;10.42;100.00;100310.03;2047874;28;20496;-61
2022/11/23 00:39:06;;;;;;;22.80;20.37;;;;;;;10.43;100.00;100306.81;2047264;28;20186;-61
2022/11/23 00:40:07;;;;;;;24.67;20.30;;;;;;;10.45;100.00;100309.91;2048009;28;20182;-62
2022/11/23 00:41:14;;;;;;;21.73;19.40;;;;;;;10.52;100.00;100318.03;2048087;28;20253;-62
2022/11/23 00:42:14;;;;;;;21.30;19.00;;;;;;;10.52;100.00;100306.97;2045509;28;20959;-61
2022/11/23 00:43:15;;;;;;;24.10;20.67;;;;;;;10.52;100.00;100322.78;2047005;28;20841;-61
2022/11/23 00:44:15;;;;;;;22.40;19.60;;;;;;;10.53;100.00;100322.38;2047768;28;20207;-62
2022/11/23 00:45:15;;;;;;;23.93;19.50;;;;;;;10.57;100.00;100322.25;2047538;28;20777;-62
2022/11/23 00:46:22;;;;;;;21.70;19.13;;;;;;;10.52;100.00;100312.50;2047435;29;20199;-61
2022/11/23 00:47:22;;;;;;;22.33;19.60;;;;;;;10.59;100.00;100317.84;2047705;28;22992;-61
2022/11/23 00:48:22;;;;;;;23.30;19.43;;;;;;;10.58;100.00;100324.59;2047104;28;20441;-61
2022/11/23 00:49:23;;;;;;;21.03;18.23;;;;;;;10.54;100.00;100321.16;2047643;28;20273;-62
2022/11/23 00:50:23;;;;;;;22.80;19.30;;;;;;;10.57;100.00;100320.28;2047978;28;20243;-61
2022/11/23 00:51:27;;;;;;;20.87;18.67;;;;;;;10.57;100.00;100320.28;2047046;29;20191;-61
2022/11/23 00:52:27;;;;;;;22.37;18.50;;;;;;;10.58;100.00;100329.34;2047373;28;20455;-62
2022/11/23 00:53:28;;;;;;;22.50;19.13;;;;;;;10.04;100.00;100248.22;2047304;28;20963;-61
2022/11/23 00:54:28;;;;;;;21.03;18.70;;;;;;;10.50;100.00;100309.38;2047717;28;20612;-61
2022/11/23 00:55:29;;;;;;;21.53;19.27;;;;;;;10.45;100.00;100306.38;2047529;29;20226;-61
2022/11/23 00:56:31;;;;;;;23.30;18.97;;;;;;;10.48;100.00;100308.25;2047524;28;20249;-62
2022/11/23 00:57:33;;;;;;;22.20;19.10;;;;;;;10.53;100.00;100307.72;2047149;28;20183;-61
2022/11/23 00:58:36;;;;;;;22.97;19.40;;;;;;;9.92;100.00;100233.06;2046915;28;20433;-61
2022/11/23 00:59:36;;;;;;;20.53;18.33;;;;;;;10.59;100.00;100297.66;2047393;29;20438;-61
2022/11/23 01:00:37;;;;;;;22.60;19.63;;;;;;;10.61;100.00;100293.22;2047656;28;20458;-61
2022/11/23 01:01:37;;;;;;;21.87;18.97;;;;;;;10.62;100.00;100291.25;2046016;28;20209;-61
2022/11/23 01:02:37;;;;;;;21.37;18.83;;;;;;;10.60;100.00;100279.84;2047462;28;20222;-61
2022/11/23 01:03:41;;;;;;;22.27;19.70;;;;;;;10.56;100.00;100271.59;2047179;28;20503;-61
2022/11/23 01:04:41;;;;;;;21.73;19.40;;;;;;;10.65;100.00;100280.03;2047771;28;20200;-61
2022/11/23 01:05:42;;;;;;;22.10;19.87;;;;;;;10.64;100.00;100286.81;2047053;29;20427;-61
2022/11/23 01:06:42;;;;;;;23.63;20.47;;;;;;;10.65;100.00;100280.03;2047787;28;20266;-61
2022/11/23 01:07:43;;;;;;;22.97;20.33;;;;;;;10.68;100.00;100278.38;2047859;29;20248;-61
2022/11/23 01:08:48;;;;;;;22.43;20.03;;;;;;;10.67;100.00;100279.59;2047680;28;20202;-61
2022/11/23 01:09:49;;;;;;;22.27;19.83;;;;;;;10.66;100.00;100267.75;2047610;28;20210;-62
2022/11/23 01:10:49;;;;;;;22.47;19.63;;;;;;;10.63;100.00;100265.06;2046929;28;20454;-62
2022/11/23 01:11:50;;;;;;;23.60;20.90;;;;;;;10.26;100.00;100213.16;2047271;28;20199;-61
2022/11/23 01:12:50;;;;;;;23.37;20.67;;;;;;;10.23;100.00;100194.63;2047669;28;20278;-61
2022/11/23 01:13:51;;;;;;;23.40;20.90;;;;;;;10.69;100.00;100264.09;2046987;29;20217;-61
2022/11/23 01:14:53;;;;;;;21.77;19.47;;;;;;;10.68;100.00;100267.31;2046657;29;20281;-61
2022/11/23 01:15:53;;;;;;;22.73;20.33;;;;;;;10.75;100.00;100253.22;2047450;28;20541;-62
2022/11/23 01:16:53;;;;;;;22.77;19.50;;;;;;;10.70;100.00;100232.38;2048049;29;20494;-62
2022/11/23 01:17:54;;;;;;;23.77;19.73;;;;;;;10.62;100.00;100233.06;2047270;28;20583;-61
2022/11/23 01:18:56;;;;;;;22.67;19.87;;;;;;;10.73;100.00;100262.00;2047256;28;20188;-62
2022/11/23 01:19:57;;;;;;;22.53;20.13;;;;;;;10.78;100.00;100253.13;2047094;28;20191;-61
2022/11/23 01:21:00;;;;;;;25.87;19.83;;;;;;;10.82;100.00;100262.09;2047291;28;20537;-61
2022/11/23 01:22:00;;;;;;;22.40;20.00;;;;;;;10.84;100.00;100256.91;2046307;28;20255;-61
2022/11/23 01:23:01;;;;;;;22.23;19.83;;;;;;;10.87;100.00;100271.88;2046144;28;20607;-61
2022/11/23 01:24:07;;;;;;;22.53;20.13;;;;;;;10.89;100.00;100263.88;2046061;29;20314;-61
2022/11/23 01:25:08;;;;;;;23.53;19.87;;;;;;;10.31;100.00;100182.16;2047312;28;20184;-61
2022/11/23 01:26:09;;;;;;;22.37;19.57;;;;;;;10.55;100.00;100206.31;2047191;28;20442;-62
2022/11/23 01:27:10;;;;;;;24.90;21.47;;;;;;;10.95;100.00;100260.13;2047921;28;20184;-61
2022/11/23 01:28:14;;;;;;;23.10;20.57;;;;;;;10.93;100.00;100264.56;2046137;28;20439;-61
2022/11/23 01:29:14;;;;;;;23.03;20.50;;;;;;;10.99;100.00;100260.00;2046608;29;20183;-61
2022/11/23 01:30:15;;;;;;;23.30;20.13;;;;;;;11.01;100.00;100266.66;2047134;28;20434;-61
2022/11/23 01:31:19;;;;;;;23.03;20.07;;;;;;;10.97;100.00;100256.91;2047542;28;20226;-62
2022/11/23 01:32:19;;;;;;;22.80;20.40;;;;;;;10.91;100.00;100258.69;2047685;29;20183;-61
2022/11/23 01:33:20;;;;;;;23.27;20.37;;;;;;;10.82;100.00;100250.25;2046602;29;20450;-61
2022/11/23 01:34:20;;;;;;;23.83;20.03;;;;;;;10.80;100.00;100241.59;2047312;28;20215;-61
2022/11/23 01:35:20;;;;;;;21.67;19.47;;;;;;;10.88;100.00;100249.25;2047501;28;20211;-61
2022/11/23 01:36:24;;;;;;;23.30;20.40;;;;;;;10.90;100.00;100243.25;2047379;28;20194;-62
2022/11/23 01:37:24;;;;;;;24.17;20.00;;;;;;;10.90;100.00;100246.81;2046599;28;20207;-61
2022/11/23 01:38:25;;;;;;;22.80;20.17;;;;;;;10.92;100.00;100247.13;2047313;28;20454;-61
2022/11/23 01:39:25;;;;;;;22.50;20.10;;;;;;;10.93;100.00;100247.91;2046942;29;20199;-61
2022/11/23 01:40:26;;;;;;;22.17;19.57;;;;;;;10.40;100.00;100173.97;2047682;29;20255;-61
2022/11/23 01:41:36;;;;;;;22.83;20.23;;;;;;;10.94;100.00;100247.50;2047079;28;20222;-61
2022/11/23 01:42:58;;;;;;;22.40;19.97;;;;;;;10.97;100.00;100252.13;2046280;29;20260;-61
2022/11/23 01:43:59;;;;;;;21.30;18.50;;;;;;;10.94;100.00;100243.94;2047194;28;20438;-61
2022/11/23 01:45:26;;;;;;;21.63;19.33;;;;;;;10.96;100.00;100253.34;2046934;29;21025;-62
2022/11/23 01:46:27;;;;;;;21.50;19.20;;;;;;;10.86;100.00;100245.38;2046844;28;20195;-62
2022/11/23 01:47:27;;;;;;;23.00;19.80;;;;;;;10.91;100.00;100237.28;2046980;28;20439;-61
2022/11/23 01:48:31;;;;;;;21.97;19.27;;;;;;;10.88;100.00;100235.41;2047562;28;20194;-61
2022/11/23 01:49:42;;;;;;;24.77;20.27;;;;;;;10.88;100.00;100234.63;2046634;28;20290;-62
2022/11/23 01:50:45;;;;;;;22.07;19.70;;;;;;;10.91;100.00;100225.44;2046629;29;20446;-62
2022/11/23 01:51:49;;;;;;;23.40;19.50;;;;;;;10.94;100.00;100233.63;2045946;28;20450;-61
2022/11/23 01:52:50;;;;;;;23.20;20.00;;;;;;;10.95;100.00;100226.84;2047400;28;20451;-62
2022/11/23 01:53:54;;;;;;;23.20;20.17;;;;;;;10.65;100.00;100182.31;2046146;28;20454;-61
2022/11/23 01:54:57;;;;;;;22.13;19.80;;;;;;;10.98;100.00;100233.50;2047248;28;20576;-61
2022/11/23 01:56:01;;;;;;;23.60;19.73;;;;;;;10.99;100.00;100235.84;2046308;28;20485;-62
2022/11/23 01:57:09;;;;;;;23.30;20.80;;;;;;;11.00;100.00;100237.38;2046743;28;20440;-61
2022/11/23 01:58:11;;;;;;;23.23;19.73;;;;;;;10.98;100.00;100233.50;2046858;28;20450;-61
2022/11/23 01:59:17;;;;;;;21.87;19.57;;;;;;;10.99;100.00;100232.28;2047435;28;20458;-62
2022/11/23 02:00:17;;;;;;;21.20;18.90;;;;;;;10.98;100.00;100228.75;2046399;29;20917;-61
2022/11/23 02:01:18;;;;;;;23.40;19.83;;;;;;;11.03;100.00;100230.19;2046792;28;21831;-61
2022/11/23 02:02:18;;;;;;;22.60;19.97;;;;;;;10.96;100.00;100219.31;2052135;28;20191;-61
2022/11/23 02:03:19;;;;;;;23.43;19.77;;;;;;;11.02;100.00;100231.41;2051719;28;20901;-61
2022/11/23 02:04:26;;;;;;;24.93;20.70;;;;;;;10.98;100.00;100225.19;2047081;28;20330;-62
2022/11/23 02:05:35;;;;;;;22.40;20.00;;;;;;;10.96;100.00;100233.19;2046866;28;20191;-61
2022/11/23 02:06:36;;;;;;;22.80;20.00;;;;;;;10.94;100.00;100232.84;2047393;28;20932;-61
2022/11/23 02:07:38;;;;;;;22.43;19.97;;;;;;;10.91;100.00;100234.50;2047364;29;20848;-61
2022/11/23 02:08:38;;;;;;;23.53;19.43;;;;;;;10.86;100.00;100237.06;2047276;29;20443;-61
2022/11/23 02:09:40;;;;;;;22.87;20.20;;;;;;;10.84;100.00;100239.50;2045757;29;20455;-61
2022/11/23 02:10:41;;;;;;;22.83;20.27;;;;;;;10.79;100.00;100235.28;2046289;29;20192;-61
2022/11/23 02:11:41;;;;;;;21.60;19.23;;;;;;;10.79;100.00;100231.72;2046086;29;21039;-61
2022/11/23 02:12:42;;;;;;;22.77;20.37;;;;;;;10.83;100.00;100240.72;2047560;29;20569;-62
2022/11/23 02:13:46;;;;;;;23.23;20.73;;;;;;;10.75;100.00;100228.28;2045629;28;20194;-61
2022/11/23 02:14:47;;;;;;;22.17;19.87;;;;;;;10.66;100.00;100223.41;2046561;28;20603;-61
2022/11/23 02:15:47;;;;;;;23.90;20.33;;;;;;;10.83;100.00;100233.19;2046990;28;20501;-62
2022/11/23 02:16:48;;;;;;;25.80;21.27;;;;;;;10.79;100.00;100226.97;2047117;28;20311;-61
2022/11/23 02:17:48;;;;;;;23.07;20.10;;;;;;;10.78;100.00;100230.19;2047366;28;20204;-62
2022/11/23 02:18:51;;;;;;;22.70;20.20;;;;;;;10.73;100.00;100216.88;2046801;28;20212;-62
2022/11/23 02:20:07;;;;;;;22.80;20.33;;;;;;;10.80;100.00;100224.97;2046950;28;20187;-61
2022/11/23 02:21:08;;;;;;;26.73;21.00;;;;;;;10.56;100.00;100196.03;2047099;29;20450;-61
2022/11/23 02:22:19;;;;;;;23.30;20.77;;;;;;;10.73;100.00;100225.19;2046771;28;20980;-61
2022/11/23 02:23:19;;;;;;;23.03;20.40;;;;;;;10.73;100.00;100220.44;2045385;28;21011;-61
2022/11/23 02:24:30;;;;;;;22.37;19.97;;;;;;;10.71;100.00;100217.31;2047053;28;20875;-61
2022/11/23 02:25:39;;;;;;;24.17;20.37;;;;;;;10.72;100.00;100229.19;2047516;28;20168;-62
2022/11/23 02:26:40;;;;;;;22.50;20.10;;;;;;;10.28;100.00;100169.97;2046853;29;20450;-61
2022/11/23 02:27:41;;;;;;;22.87;20.27;;;;;;;10.75;100.00;100236.59;2046965;28;20469;-62
2022/11/23 02:28:45;;;;;;;23.07;20.17;;;;;;;10.75;100.00;100245.69;2047429;29;20231;-61
2022/11/23 02:29:47;;;;;;;22.90;19.60;;;;;;;10.72;100.00;100248.59;2047924;28;20443;-61
2022/11/23 02:30:51;;;;;;;25.30;19.67;;;;;;;10.24;100.00;100176.81;2047712;28;21040;-61
2022/11/23 02:31:53;;;;;;;22.60;19.30;;;;;;;10.74;100.00;100248.91;2047389;28;20441;-62
2022/11/23 02:32:54;;;;;;;22.67;20.23;;;;;;;10.70;100.00;100251.78;2048697;28;20984;-62
2022/11/23 02:33:55;;;;;;;22.93;20.10;;;;;;;10.69;100.00;100255.00;2048471;28;20445;-61
2022/11/23 02:34:55;;;;;;;24.50;20.20;;;;;;;10.76;100.00;100252.78;2048780;28;20484;-61
2022/11/23 02:35:58;;;;;;;22.63;20.00;;;;;;;10.74;100.00;100265.53;2048647;28;20323;-61
2022/11/23 02:36:59;;;;;;;24.27;20.43;;;;;;;10.70;100.00;100245.47;2048184;28;20661;-62
2022/11/23 02:38:01;;;;;;;24.63;20.33;;;;;;;10.76;100.00;100258.31;2048973;29;20907;-61
2022/11/23 02:39:07;;;;;;;21.77;19.47;;;;;;;10.70;100.00;100254.56;2048834;29;20594;-62
2022/11/23 02:40:23;;;;;;;22.13;19.50;;;;;;;10.54;100.00;100237.25;2048708;28;20956;-61
2022/11/23 02:41:24;;;;;;;23.20;20.30;;;;;;;10.60;100.00;100246.59;2048143;28;20426;-61
2022/11/23 02:42:27;;;;;;;23.90;20.73;;;;;;;10.53;100.00;100247.56;2048058;29;20435;-61
2022/11/23 02:43:28;;;;;;;22.17;19.77;;;;;;;10.56;100.00;100251.44;2040267;29;20188;-61
2022/11/23 02:44:29;;;;;;;24.07;21.30;;;;;;;10.59;100.00;100247.78;2048064;29;20439;-62
2022/11/23 02:45:42;;;;;;;22.20;19.80;;;;;;;10.60;100.00;100250.09;2048321;28;20641;-62
2022/11/23 02:46:42;;;;;;;22.23;19.83;;;;;;;10.64;100.00;100247.22;2048762;28;20190;-62
2022/11/23 02:47:43;;;;;;;23.80;20.40;;;;;;;10.65;100.00;100255.09;2048433;28;20929;-62
2022/11/23 02:48:43;;;;;;;22.40;19.70;;;;;;;10.64;100.00;100241.69;2048238;28;20696;-61
2022/11/23 02:49:48;;;;;;;22.37;19.40;;;;;;;10.23;100.00;100192.66;2048740;28;20267;-61
2022/11/23 02:50:49;;;;;;;24.47;20.60;;;;;;;10.62;100.00;100244.13;2047813;29;20684;-62
2022/11/23 02:51:50;;;;;;;22.97;19.60;;;;;;;10.63;100.00;100243.69;2048645;28;20886;-62
2022/11/23 02:52:50;;;;;;;22.50;20.10;;;;;;;10.08;100.00;100165.81;2048892;29;20186;-62
2022/11/23 02:53:51;;;;;;;22.80;19.63;;;;;;;10.61;100.00;100237.03;2048228;28;20454;-62
2022/11/23 02:54:51;;;;;;;21.13;18.90;;;;;;;10.42;100.00;100208.31;2048162;28;20761;-61
2022/11/23 02:55:51;;;;;;;22.27;19.37;;;;;;;10.58;100.00;100247.00;2047631;28;20563;-62
2022/11/23 02:56:52;;;;;;;22.60;19.97;;;;;;;10.57;100.00;100244.69;2048597;29;20192;-62
2022/11/23 02:57:52;;;;;;;23.03;19.33;;;;;;;10.59;100.00;100245.00;2048331;28;20239;-61
2022/11/23 02:58:53;;;;;;;21.97;18.87;;;;;;;10.59;100.00;100236.69;2048956;28;20334;-62
2022/11/23 02:59:53;;;;;;;24.80;19.23;;;;;;;10.45;100.00;100235.13;2047820;28;20553;-61
2022/11/23 03:00:54;;;;;;;22.17;19.70;;;;;;;10.54;100.00;100240.00;2048537;28;20846;-62
2022/11/23 03:01:54;;;;;;;21.97;19.50;;;;;;;10.56;100.00;100238.34;2048189;28;20269;-62
2022/11/23 03:02:54;;;;;;;22.83;19.43;;;;;;;10.60;100.00;100243.81;2048407;28;20184;-62
2022/11/23 03:03:55;;;;;;;24.17;20.47;;;;;;;10.61;100.00;100237.81;2047404;28;20243;-62
2022/11/23 03:04:55;;;;;;;23.70;20.77;;;;;;;10.62;100.00;100244.94;2048425;29;20202;-62
2022/11/23 03:05:56;;;;;;;24.47;19.97;;;;;;;10.46;100.00;100227.59;2048177;29;20597;-61
2022/11/23 03:06:57;;;;;;;23.77;21.17;;;;;;;10.61;100.00;100242.59;2048454;28;20215;-61
2022/11/23 03:07:57;;;;;;;22.80;20.30;;;;;;;10.60;100.00;100238.28;2048363;28;20194;-62
2022/11/23 03:08:58;;;;;;;25.57;20.90;;;;;;;9.98;100.00;100139.19;2048395;28;20738;-61
2022/11/23 03:09:58;;;;;;;26.67;21.77;;;;;;;10.63;100.00;100245.69;2048659;29;20195;-62
2022/11/23 03:11:00;;;;;;;23.73;21.10;;;;;;;10.58;100.00;100244.25;2048267;28;20586;-62
2022/11/23 03:12:01;;;;;;;26.07;20.87;;;;;;;10.60;100.00;100236.25;2047349;28;20192;-62
2022/11/23 03:13:01;;;;;;;24.50;21.47;;;;;;;10.56;100.00;100227.25;2046883;29;21157;-61
2022/11/23 03:14:02;;;;;;;24.73;20.43;;;;;;;10.64;100.00;100233.38;2048345;29;20246;-61
2022/11/23 03:15:03;;;;;;;24.17;21.07;;;;;;;10.62;100.00;100244.94;2048003;29;20191;-61
2022/11/23 03:16:04;;;;;;;25.80;21.60;;;;;;;10.45;100.00;100218.50;2047560;29;20301;-62
2022/11/23 03:17:04;;;;;;;26.03;22.27;;;;;;;10.65;100.00;100246.03;2049195;28;20196;-61
2022/11/23 03:18:04;;;;;;;25.57;21.87;;;;;;;10.66;100.00;100253.88;2047958;29;20279;-61
2022/11/23 03:19:05;;;;;;;24.17;20.77;;;;;;;9.82;100.00;100126.19;2048397;28;20213;-62
2022/11/23 03:20:06;;;;;;;24.57;21.97;;;;;;;10.74;100.00;100257.22;2048469;29;20206;-61
2022/11/23 03:21:09;;;;;;;24.70;21.03;;;;;;;10.58;100.00;100247.00;2048064;28;20203;-61
2022/11/23 03:22:09;;;;;;;28.53;22.33;;;;;;;10.55;100.00;100238.81;2047476;28;20203;-62
2022/11/23 03:23:10;;;;;;;25.47;21.60;;;;;;;10.74;100.00;100274.63;2047920;28;20434;-61
2022/11/23 03:24:10;;;;;;;24.47;21.37;;;;;;;10.78;100.00;100282.84;2047024;28;20316;-61
2022/11/23 03:25:11;;;;;;;25.10;21.17;;;;;;;10.80;100.00;100288.72;2047594;29;20669;-61
2022/11/23 03:26:11;;;;;;;25.30;20.30;;;;;;;10.80;100.00;100285.94;2048550;29;20270;-62
2022/11/23 03:27:12;;;;;;;23.80;21.20;;;;;;;10.74;100.00;100282.94;2048107;28;20298;-61
2022/11/23 03:28:12;;;;;;;22.63;20.23;;;;;;;10.71;100.00;100289.38;2048330;29;20283;-62
2022/11/23 03:29:12;;;;;;;23.63;20.97;;;;;;;10.75;100.00;100284.50;2048599;28;20195;-62
2022/11/23 03:30:13;;;;;;;24.20;21.60;;;;;;;10.72;100.00;100287.38;2048458;28;20210;-61
2022/11/23 03:31:14;;;;;;;24.77;21.20;;;;;;;10.70;100.00;100287.81;2047451;28;20195;-61
2022/11/23 03:32:14;;;;;;;22.97;20.30;;;;;;;10.71;100.00;100289.38;2047782;28;20218;-61
2022/11/23 03:33:15;;;;;;;25.73;21.70;;;;;;;10.69;100.00;100288.25;2048093;29;20229;-61
2022/11/23 03:34:16;;;;;;;23.57;20.57;;;;;;;10.09;100.00;100197.84;2048483;28;20214;-61
2022/11/23 03:35:16;;;;;;;23.03;20.53;;;;;;;10.71;100.00;100294.16;2048037;28;20462;-61
2022/11/23 03:36:17;;;;;;;25.40;21.53;;;;;;;10.70;100.00;100287.03;2047833;28;20294;-62
2022/11/23 03:37:17;;;;;;;22.70;20.17;;;;;;;10.71;100.00;100291.38;2048123;28;20210;-61
2022/11/23 03:38:18;;;;;;;24.80;21.17;;;;;;;10.75;100.00;100292.03;2048432;28;20200;-62
2022/11/23 03:39:18;;;;;;;23.90;20.70;;;;;;;10.75;100.00;100295.59;2047799;28;20656;-61
2022/11/23 03:40:18;;;;;;;25.03;21.33;;;;;;;10.77;100.00;100292.38;2047585;28;20198;-62
2022/11/23 03:41:19;;;;;;;23.73;21.13;;;;;;;10.77;100.00;100297.91;2046665;28;20193;-61
2022/11/23 03:42:19;;;;;;;25.83;22.30;;;;;;;10.77;100.00;100292.38;2048440;28;20261;-62
2022/11/23 03:43:20;;;;;;;27.13;22.17;;;;;;;10.77;100.00;100292.38;2047705;29;20195;-62
2022/11/23 03:44:20;;;;;;;25.93;20.67;;;;;;;10.50;100.00;100253.97;2048188;29;20235;-61
2022/11/23 03:45:21;;;;;;;28.07;22.97;;;;;;;10.67;100.00;100299.78;2047429;29;20200;-61
2022/11/23 03:46:21;;;;;;;26.27;21.93;;;;;;;10.62;100.00;100299.56;2047917;28;20253;-62
2022/11/23 03:47:22;;;;;;;25.87;23.00;;;;;;;10.62;100.00;100291.25;2048360;28;20329;-61
2022/11/23 03:48:22;;;;;;;26.70;23.20;;;;;;;10.55;100.00;100291.47;2047350;28;20193;-62
2022/11/23 03:49:23;;;;;;;27.47;23.03;;;;;;;10.56;100.00;100299.31;2047617;28;20198;-62
2022/11/23 03:50:23;;;;;;;27.13;22.93;;;;;;;9.99;100.00;100201.66;2048544;28;20576;-62
2022/11/23 03:51:23;;;;;;;26.27;22.37;;;;;;;10.60;100.00;100304.75;2047683;28;20230;-62
2022/11/23 03:52:24;;;;;;;27.50;22.70;;;;;;;10.54;100.00;100301.75;2048255;28;20203;-62
2022/11/23 03:53:24;;;;;;;23.00;20.43;;;;;;;10.59;100.00;100300.41;2047854;28;20655;-61
2022/11/23 03:54:25;;;;;;;23.23;20.63;;;;;;;10.43;100.00;100283.88;2046672;28;20274;-62
2022/11/23 03:55:25;;;;;;;25.50;21.23;;;;;;;10.47;100.00;100301.97;2048032;28;20195;-62
2022/11/23 03:56:26;;;;;;;23.30;20.80;;;;;;;10.44;100.00;100299.28;2047967;28;20283;-62
2022/11/23 03:57:26;;;;;;;27.73;21.50;;;;;;;10.42;100.00;100296.16;2047252;29;20198;-61
2022/11/23 03:58:27;;;;;;;23.83;21.17;;;;;;;10.37;100.00;100302.25;2047829;28;21145;-61
2022/11/23 03:59:27;;;;;;;23.27;20.50;;;;;;;10.37;100.00;100307.78;2048303;28;20202;-62
2022/11/23 04:00:29;;;;;;;26.00;21.17;;;;;;;10.38;100.00;100301.81;2047958;28;20207;-61
2022/11/23 04:01:30;;;;;;;23.70;20.77;;;;;;;10.41;100.00;100297.41;2047175;28;20251;-61
2022/11/23 04:02:30;;;;;;;23.17;20.43;;;;;;;10.42;100.00;100305.28;2046316;28;20437;-62
2022/11/23 04:03:30;;;;;;;22.57;19.67;;;;;;;10.46;100.00;100294.09;2045349;28;20647;-62
2022/11/23 04:04:31;;;;;;;20.97;18.60;;;;;;;10.46;100.00;100292.06;2047702;29;20309;-62
2022/11/23 04:05:31;;;;;;;23.57;19.90;;;;;;;10.24;100.00;100262.69;2048134;28;20269;-62
2022/11/23 04:06:32;;;;;;;25.67;20.30;;;;;;;9.90;100.00;100223.63;2048299;29;20191;-61
2022/11/23 04:07:32;;;;;;;22.17;19.03;;;;;;;10.07;100.00;100239.78;2047498;28;20578;-62
2022/11/23 04:08:33;;;;;;;27.43;20.13;;;;;;;10.22;100.00;100254.00;2047993;28;20245;-61
2022/11/23 04:09:33;;;;;;;21.57;19.27;;;;;;;10.20;100.00;100254.44;2047613;28;20195;-62
2022/11/23 04:10:34;;;;;;;25.03;20.47;;;;;;;10.20;100.00;100254.44;2048157;28;20657;-61
2022/11/23 04:11:34;;;;;;;22.40;20.00;;;;;;;10.32;100.00;100262.03;2047212;28;20228;-61
2022/11/23 04:12:34;;;;;;;23.90;20.53;;;;;;;10.40;100.00;100257.06;2047442;28;20276;-61
2022/11/23 04:13:35;;;;;;;22.93;19.97;;;;;;;10.30;100.00;100245.06;2046849;28;20618;-62
2022/11/23 04:14:35;;;;;;;23.80;20.07;;;;;;;10.48;100.00;100255.63;2048149;28;20251;-62
2022/11/23 04:15:36;;;;;;;22.47;20.07;;;;;;;10.51;100.00;100249.22;2048108;28;20259;-61
2022/11/23 04:16:36;;;;;;;22.80;19.63;;;;;;;9.82;100.00;100164.16;2047657;28;20622;-61
2022/11/23 04:17:37;;;;;;;23.53;19.70;;;;;;;10.36;100.00;100250.84;2047935;29;20290;-61
2022/11/23 04:18:37;;;;;;;22.40;19.57;;;;;;;10.30;100.00;100247.06;2047842;28;20221;-62
2022/11/23 04:19:38;;;;;;;25.37;21.03;;;;;;;9.99;100.00;100198.88;2048195;28;20558;-62
2022/11/23 04:20:38;;;;;;;24.03;20.63;;;;;;;10.49;100.00;100259.94;2048314;28;20314;-61
2022/11/23 04:21:38;;;;;;;24.67;21.50;;;;;;;10.53;100.00;100266.97;2046876;28;20206;-62
2022/11/23 04:22:39;;;;;;;25.00;21.47;;;;;;;10.58;100.00;100271.16;2048258;29;20593;-61
2022/11/23 04:23:40;;;;;;;25.63;20.47;;;;;;;10.09;100.00;100192.31;2047342;28;20234;-61
2022/11/23 04:24:40;;;;;;;25.53;19.97;;;;;;;10.42;100.00;100236.03;2047828;28;20207;-62
2022/11/23 04:25:40;;;;;;;24.67;20.70;;;;;;;10.64;100.00;100274.94;2046448;29;20210;-62
2022/11/23 04:26:41;;;;;;;23.43;20.03;;;;;;;10.65;100.00;100273.75;2047768;29;20222;-61
2022/11/23 04:27:41;;;;;;;24.97;20.53;;;;;;;10.66;100.00;100272.53;2048221;29;20199;-62
2022/11/23 04:28:42;;;;;;;26.23;20.03;;;;;;;10.11;100.00;100196.19;2047675;28;20276;-62
2022/11/23 04:29:42;;;;;;;25.77;20.87;;;;;;;10.46;100.00;100258.06;2047790;28;20191;-62
2022/11/23 04:30:42;;;;;;;23.93;20.97;;;;;;;10.21;100.00;100208.94;2047657;29;20909;-62
2022/11/23 04:31:43;;;;;;;25.73;20.73;;;;;;;10.45;100.00;100257.28;2047210;29;20325;-61
2022/11/23 04:32:44;;;;;;;23.33;20.53;;;;;;;10.41;100.00;100253.06;2048055;28;20202;-61
2022/11/23 04:33:45;;;;;;;26.63;20.57;;;;;;;10.40;100.00;100251.53;2047049;28;20211;-61
2022/11/23 04:34:45;;;;;;;23.83;20.50;;;;;;;10.40;100.00;100255.06;2047407;28;20531;-61
2022/11/23 04:35:45;;;;;;;23.30;20.17;;;;;;;10.41;100.00;100264.16;2047796;28;20221;-61
2022/11/23 04:36:46;;;;;;;25.80;20.43;;;;;;;10.47;100.00;100259.63;2046461;28;20203;-61